sensor_id;sensor_type;location;lat;lon;timestamp;P1;durP1;ratioP1;P2;durP2;ratioP2
76196;SDS011;64974;53.144;17.962;2022-12-07T00:00:27;15.13;;;7.55;;
76196;SDS011;64974;53.144;17.962;2022-12-07T00:02:53;17.17;;;7.05;;
76196;SDS011;64974;53.144;17.962;2022-12-07T00:05:18;17.67;;;6.70;;
76196;SDS011;64974;53.144;17.962;2022-12-07T00:07:44;38.03;;;12.50;;
76196;SDS011;64974;53.144;17.962;2022-12-07T00:10:10;25.38;;;8.07;;
76196;SDS011;64974;53.144;17.962;2022-12-07T00:12:35;21.65;;;7.68;;
76196;SDS011;64974;53.144;17.962;2022-12-07T00:15:00;44.00;;;13.15;;
76196;SDS011;64974;53.144;17.962;2022-12-07T00:17:26;37.27;;;12.30;;
76196;SDS011;64974;53.144;17.962;2022-12-07T00:19:51;15.95;;;7.93;;
76196;SDS011;64974;53.144;17.962;2022-12-07T00:22:17;24.50;;;9.98;;
76196;SDS011;64974;53.144;17.962;2022-12-07T00:24:42;19.23;;;6.57;;
76196;SDS011;64974;53.144;17.962;2022-12-07T00:27:07;16.23;;;7.47;;
76196;SDS011;64974;53.144;17.962;2022-12-07T00:29:33;19.77;;;7.10;;
76196;SDS011;64974;53.144;17.962;2022-12-07T00:31:58;16.08;;;6.78;;
76196;SDS011;64974;53.144;17.962;2022-12-07T00:34:23;15.43;;;6.72;;
76196;SDS011;64974;53.144;17.962;2022-12-07T00:36:49;16.30;;;6.88;;
76196;SDS011;64974;53.144;17.962;2022-12-07T00:39:14;14.70;;;6.43;;
76196;SDS011;64974;53.144;17.962;2022-12-07T00:41:40;15.25;;;6.93;;
76196;SDS011;64974;53.144;17.962;2022-12-07T00:44:05;19.52;;;8.40;;
76196;SDS011;64974;53.144;17.962;2022-12-07T00:46:31;8.77;;;4.43;;
76196;SDS011;64974;53.144;17.962;2022-12-07T00:48:56;14.18;;;5.88;;
76196;SDS011;64974;53.144;17.962;2022-12-07T00:51:22;12.55;;;5.28;;
76196;SDS011;64974;53.144;17.962;2022-12-07T00:53:49;15.32;;;6.13;;
76196;SDS011;64974;53.144;17.962;2022-12-07T00:56:15;11.18;;;4.97;;
76196;SDS011;64974;53.144;17.962;2022-12-07T00:58:52;9.65;;;4.38;;
76196;SDS011;64974;53.144;17.962;2022-12-07T01:01:18;15.23;;;6.47;;
76196;SDS011;64974;53.144;17.962;2022-12-07T01:03:44;15.27;;;5.78;;
76196;SDS011;64974;53.144;17.962;2022-12-07T01:06:09;13.55;;;5.25;;
76196;SDS011;64974;53.144;17.962;2022-12-07T01:08:39;11.60;;;5.72;;
76196;SDS011;64974;53.144;17.962;2022-12-07T01:11:06;9.65;;;4.65;;
76196;SDS011;64974;53.144;17.962;2022-12-07T01:13:32;10.20;;;4.22;;
76196;SDS011;64974;53.144;17.962;2022-12-07T01:15:59;15.88;;;6.57;;
76196;SDS011;64974;53.144;17.962;2022-12-07T01:18:26;16.05;;;5.70;;
76196;SDS011;64974;53.144;17.962;2022-12-07T01:23:27;14.23;;;5.32;;
76196;SDS011;64974;53.144;17.962;2022-12-07T01:25:54;15.18;;;5.55;;
76196;SDS011;64974;53.144;17.962;2022-12-07T01:28:20;14.45;;;6.30;;
76196;SDS011;64974;53.144;17.962;2022-12-07T01:30:53;14.70;;;6.20;;
76196;SDS011;64974;53.144;17.962;2022-12-07T01:33:26;13.30;;;5.53;;
76196;SDS011;64974;53.144;17.962;2022-12-07T01:35:53;18.63;;;6.15;;
76196;SDS011;64974;53.144;17.962;2022-12-07T01:38:19;12.27;;;5.20;;
76196;SDS011;64974;53.144;17.962;2022-12-07T01:40:44;13.60;;;5.72;;
76196;SDS011;64974;53.144;17.962;2022-12-07T01:43:14;14.05;;;5.65;;
76196;SDS011;64974;53.144;17.962;2022-12-07T01:45:42;10.50;;;4.93;;
76196;SDS011;64974;53.144;17.962;2022-12-07T01:48:08;10.85;;;4.57;;
76196;SDS011;64974;53.144;17.962;2022-12-07T01:50:34;10.70;;;4.65;;
76196;SDS011;64974;53.144;17.962;2022-12-07T01:53:01;11.40;;;4.82;;
76196;SDS011;64974;53.144;17.962;2022-12-07T01:55:28;10.27;;;4.68;;
76196;SDS011;64974;53.144;17.962;2022-12-07T01:57:54;14.15;;;5.60;;
76196;SDS011;64974;53.144;17.962;2022-12-07T04:00:31;18.73;;;9.18;;
76196;SDS011;64974;53.144;17.962;2022-12-07T04:02:57;22.20;;;9.20;;
76196;SDS011;64974;53.144;17.962;2022-12-07T04:05:23;12.30;;;5.68;;
76196;SDS011;64974;53.144;17.962;2022-12-07T04:07:48;17.67;;;6.20;;
76196;SDS011;64974;53.144;17.962;2022-12-07T04:10:14;14.52;;;7.25;;
76196;SDS011;64974;53.144;17.962;2022-12-07T04:12:39;15.73;;;8.00;;
76196;SDS011;64974;53.144;17.962;2022-12-07T04:15:05;12.00;;;5.20;;
76196;SDS011;64974;53.144;17.962;2022-12-07T04:17:31;16.20;;;6.82;;
76196;SDS011;64974;53.144;17.962;2022-12-07T04:19:56;14.68;;;6.97;;
76196;SDS011;64974;53.144;17.962;2022-12-07T04:22:21;17.55;;;8.13;;
76196;SDS011;64974;53.144;17.962;2022-12-07T04:24:47;15.15;;;6.40;;
76196;SDS011;64974;53.144;17.962;2022-12-07T04:27:12;14.45;;;6.30;;
76196;SDS011;64974;53.144;17.962;2022-12-07T04:29:37;10.43;;;5.65;;
76196;SDS011;64974;53.144;17.962;2022-12-07T04:32:03;11.25;;;5.05;;
76196;SDS011;64974;53.144;17.962;2022-12-07T04:34:28;11.38;;;4.97;;
76196;SDS011;64974;53.144;17.962;2022-12-07T04:36:54;13.68;;;5.32;;
76196;SDS011;64974;53.144;17.962;2022-12-07T04:39:21;8.88;;;4.30;;
76196;SDS011;64974;53.144;17.962;2022-12-07T04:41:48;9.68;;;4.05;;
76196;SDS011;64974;53.144;17.962;2022-12-07T04:44:13;10.63;;;4.78;;
76196;SDS011;64974;53.144;17.962;2022-12-07T04:46:39;9.00;;;4.35;;
76196;SDS011;64974;53.144;17.962;2022-12-07T04:49:05;10.25;;;4.95;;
76196;SDS011;64974;53.144;17.962;2022-12-07T04:51:30;11.18;;;5.07;;
76196;SDS011;64974;53.144;17.962;2022-12-07T04:53:56;14.13;;;6.35;;
76196;SDS011;64974;53.144;17.962;2022-12-07T04:56:22;12.05;;;5.65;;
76196;SDS011;64974;53.144;17.962;2022-12-07T04:58:48;12.82;;;5.75;;
76196;SDS011;64974;53.144;17.962;2022-12-07T05:01:15;8.63;;;3.90;;
76196;SDS011;64974;53.144;17.962;2022-12-07T05:03:41;10.10;;;4.38;;
76196;SDS011;64974;53.144;17.962;2022-12-07T05:06:07;10.27;;;4.20;;
76196;SDS011;64974;53.144;17.962;2022-12-07T05:08:33;10.30;;;4.72;;
76196;SDS011;64974;53.144;17.962;2022-12-07T05:10:59;3.08;;;1.42;;
76196;SDS011;64974;53.144;17.962;2022-12-07T05:13:25;8.15;;;4.55;;
76196;SDS011;64974;53.144;17.962;2022-12-07T05:15:50;7.13;;;3.42;;
76196;SDS011;64974;53.144;17.962;2022-12-07T05:18:16;8.10;;;4.07;;
76196;SDS011;64974;53.144;17.962;2022-12-07T05:20:42;10.27;;;5.07;;
76196;SDS011;64974;53.144;17.962;2022-12-07T05:23:07;11.73;;;4.65;;
76196;SDS011;64974;53.144;17.962;2022-12-07T05:25:33;11.18;;;4.32;;
76196;SDS011;64974;53.144;17.962;2022-12-07T05:27:58;12.65;;;5.75;;
76196;SDS011;64974;53.144;17.962;2022-12-07T05:30:24;10.25;;;5.07;;
76196;SDS011;64974;53.144;17.962;2022-12-07T05:32:50;10.75;;;4.95;;
76196;SDS011;64974;53.144;17.962;2022-12-07T05:35:16;15.75;;;6.70;;
76196;SDS011;64974;53.144;17.962;2022-12-07T05:37:42;14.43;;;5.82;;
76196;SDS011;64974;53.144;17.962;2022-12-07T05:40:07;14.50;;;6.75;;
76196;SDS011;64974;53.144;17.962;2022-12-07T05:42:33;15.27;;;6.38;;
76196;SDS011;64974;53.144;17.962;2022-12-07T05:44:59;17.92;;;7.40;;
76196;SDS011;64974;53.144;17.962;2022-12-07T05:47:24;24.23;;;7.82;;
76196;SDS011;64974;53.144;17.962;2022-12-07T05:49:49;21.17;;;7.43;;
76196;SDS011;64974;53.144;17.962;2022-12-07T05:52:15;17.50;;;5.40;;
76196;SDS011;64974;53.144;17.962;2022-12-07T05:54:40;15.45;;;6.82;;
76196;SDS011;64974;53.144;17.962;2022-12-07T05:57:06;21.65;;;7.15;;
76196;SDS011;64974;53.144;17.962;2022-12-07T05:59:31;15.30;;;5.45;;
76196;SDS011;64974;53.144;17.962;2022-12-07T06:02:01;15.40;;;5.20;;
76196;SDS011;64974;53.144;17.962;2022-12-07T06:04:34;17.17;;;5.50;;
76196;SDS011;64974;53.144;17.962;2022-12-07T06:07:01;15.25;;;5.68;;
76196;SDS011;64974;53.144;17.962;2022-12-07T06:09:26;17.40;;;6.90;;
76196;SDS011;64974;53.144;17.962;2022-12-07T06:11:52;21.38;;;7.65;;
76196;SDS011;64974;53.144;17.962;2022-12-07T06:14:37;14.55;;;6.18;;
76196;SDS011;64974;53.144;17.962;2022-12-07T06:17:03;19.98;;;6.75;;
76196;SDS011;64974;53.144;17.962;2022-12-07T06:19:28;18.10;;;6.90;;
76196;SDS011;64974;53.144;17.962;2022-12-07T06:21:54;14.25;;;5.82;;
76196;SDS011;64974;53.144;17.962;2022-12-07T06:24:19;17.00;;;6.95;;
76196;SDS011;64974;53.144;17.962;2022-12-07T06:26:45;19.77;;;7.45;;
76196;SDS011;64974;53.144;17.962;2022-12-07T06:29:11;20.33;;;7.60;;
76196;SDS011;64974;53.144;17.962;2022-12-07T06:31:37;21.50;;;7.53;;
76196;SDS011;64974;53.144;17.962;2022-12-07T06:34:06;20.92;;;7.93;;
76196;SDS011;64974;53.144;17.962;2022-12-07T06:36:35;20.95;;;7.70;;
76196;SDS011;64974;53.144;17.962;2022-12-07T06:39:00;17.17;;;6.35;;
76196;SDS011;64974;53.144;17.962;2022-12-07T06:41:26;19.65;;;7.45;;
76196;SDS011;64974;53.144;17.962;2022-12-07T06:43:51;15.98;;;6.45;;
76196;SDS011;64974;53.144;17.962;2022-12-07T06:46:16;15.40;;;6.72;;
76196;SDS011;64974;53.144;17.962;2022-12-07T06:48:42;17.95;;;7.70;;
76196;SDS011;64974;53.144;17.962;2022-12-07T06:51:08;18.85;;;7.68;;
76196;SDS011;64974;53.144;17.962;2022-12-07T06:53:34;20.23;;;7.70;;
76196;SDS011;64974;53.144;17.962;2022-12-07T06:55:59;20.35;;;6.80;;
76196;SDS011;64974;53.144;17.962;2022-12-07T06:58:25;23.27;;;9.38;;
76196;SDS011;64974;53.144;17.962;2022-12-07T07:00:50;23.48;;;9.05;;
76196;SDS011;64974;53.144;17.962;2022-12-07T07:03:16;21.23;;;7.78;;
76196;SDS011;64974;53.144;17.962;2022-12-07T07:05:41;26.50;;;9.15;;
76196;SDS011;64974;53.144;17.962;2022-12-07T07:08:07;25.63;;;9.32;;
76196;SDS011;64974;53.144;17.962;2022-12-07T07:10:33;21.02;;;7.57;;
76196;SDS011;64974;53.144;17.962;2022-12-07T07:12:58;24.73;;;10.05;;
76196;SDS011;64974;53.144;17.962;2022-12-07T07:15:24;31.88;;;10.82;;
76196;SDS011;64974;53.144;17.962;2022-12-07T07:17:49;15.98;;;6.43;;
76196;SDS011;64974;53.144;17.962;2022-12-07T07:20:14;24.63;;;10.18;;
76196;SDS011;64974;53.144;17.962;2022-12-07T07:22:40;23.70;;;9.20;;
76196;SDS011;64974;53.144;17.962;2022-12-07T07:25:06;24.27;;;9.02;;
76196;SDS011;64974;53.144;17.962;2022-12-07T07:27:31;31.63;;;10.82;;
76196;SDS011;64974;53.144;17.962;2022-12-07T07:29:56;32.07;;;9.97;;
76196;SDS011;64974;53.144;17.962;2022-12-07T07:32:22;23.53;;;9.27;;
76196;SDS011;64974;53.144;17.962;2022-12-07T07:34:48;25.27;;;10.70;;
76196;SDS011;64974;53.144;17.962;2022-12-07T07:37:13;25.92;;;10.07;;
76196;SDS011;64974;53.144;17.962;2022-12-07T07:39:39;23.92;;;9.93;;
76196;SDS011;64974;53.144;17.962;2022-12-07T07:42:05;25.33;;;10.98;;
76196;SDS011;64974;53.144;17.962;2022-12-07T07:44:32;25.75;;;10.88;;
76196;SDS011;64974;53.144;17.962;2022-12-07T07:46:58;24.55;;;10.60;;
76196;SDS011;64974;53.144;17.962;2022-12-07T07:49:23;26.95;;;10.93;;
76196;SDS011;64974;53.144;17.962;2022-12-07T07:51:50;22.15;;;8.32;;
76196;SDS011;64974;53.144;17.962;2022-12-07T07:54:16;19.97;;;8.33;;
76196;SDS011;64974;53.144;17.962;2022-12-07T07:56:41;19.40;;;8.45;;
76196;SDS011;64974;53.144;17.962;2022-12-07T07:59:06;20.43;;;7.63;;
76196;SDS011;64974;53.144;17.962;2022-12-07T08:01:32;23.35;;;8.52;;
76196;SDS011;64974;53.144;17.962;2022-12-07T08:03:57;21.35;;;9.23;;
76196;SDS011;64974;53.144;17.962;2022-12-07T08:06:22;20.20;;;7.73;;
76196;SDS011;64974;53.144;17.962;2022-12-07T08:08:48;19.83;;;7.43;;
76196;SDS011;64974;53.144;17.962;2022-12-07T08:11:13;15.80;;;7.17;;
76196;SDS011;64974;53.144;17.962;2022-12-07T08:13:38;19.27;;;8.15;;
76196;SDS011;64974;53.144;17.962;2022-12-07T08:16:05;24.00;;;9.18;;
76196;SDS011;64974;53.144;17.962;2022-12-07T08:18:34;17.55;;;8.13;;
76196;SDS011;64974;53.144;17.962;2022-12-07T08:21:00;19.15;;;7.85;;
76196;SDS011;64974;53.144;17.962;2022-12-07T08:23:26;19.85;;;7.55;;
76196;SDS011;64974;53.144;17.962;2022-12-07T08:25:51;21.08;;;9.32;;
76196;SDS011;64974;53.144;17.962;2022-12-07T08:28:17;20.50;;;8.52;;
76196;SDS011;64974;53.144;17.962;2022-12-07T08:30:42;26.38;;;9.38;;
76196;SDS011;64974;53.144;17.962;2022-12-07T08:33:08;18.27;;;7.10;;
76196;SDS011;64974;53.144;17.962;2022-12-07T08:35:35;20.85;;;8.65;;
76196;SDS011;64974;53.144;17.962;2022-12-07T08:38:00;16.80;;;6.63;;
76196;SDS011;64974;53.144;17.962;2022-12-07T08:40:27;17.50;;;8.23;;
76196;SDS011;64974;53.144;17.962;2022-12-07T08:42:52;18.33;;;8.02;;
76196;SDS011;64974;53.144;17.962;2022-12-07T08:45:18;18.73;;;6.38;;
76196;SDS011;64974;53.144;17.962;2022-12-07T08:50:11;14.68;;;5.95;;
76196;SDS011;64974;53.144;17.962;2022-12-07T08:52:40;21.90;;;8.85;;
76196;SDS011;64974;53.144;17.962;2022-12-07T08:55:06;19.35;;;7.40;;
76196;SDS011;64974;53.144;17.962;2022-12-07T08:57:32;18.25;;;6.97;;
76196;SDS011;64974;53.144;17.962;2022-12-07T09:02:24;21.50;;;9.30;;
76196;SDS011;64974;53.144;17.962;2022-12-07T09:04:49;19.13;;;8.23;;
76196;SDS011;64974;53.144;17.962;2022-12-07T09:07:14;25.95;;;9.95;;
76196;SDS011;64974;53.144;17.962;2022-12-07T09:09:40;30.23;;;10.32;;
76196;SDS011;64974;53.144;17.962;2022-12-07T09:12:05;18.00;;;8.77;;
76196;SDS011;64974;53.144;17.962;2022-12-07T09:14:30;22.52;;;9.38;;
76196;SDS011;64974;53.144;17.962;2022-12-07T09:17:04;20.50;;;9.60;;
76196;SDS011;64974;53.144;17.962;2022-12-07T09:19:30;18.40;;;8.13;;
76196;SDS011;64974;53.144;17.962;2022-12-07T09:21:56;18.27;;;7.37;;
76196;SDS011;64974;53.144;17.962;2022-12-07T09:24:21;16.90;;;7.43;;
76196;SDS011;64974;53.144;17.962;2022-12-07T09:26:47;12.48;;;7.22;;
76196;SDS011;64974;53.144;17.962;2022-12-07T09:29:12;15.23;;;7.05;;
76196;SDS011;64974;53.144;17.962;2022-12-07T09:31:38;19.88;;;8.27;;
76196;SDS011;64974;53.144;17.962;2022-12-07T09:34:03;18.70;;;8.05;;
76196;SDS011;64974;53.144;17.962;2022-12-07T09:36:30;17.77;;;8.00;;
76196;SDS011;64974;53.144;17.962;2022-12-07T09:38:56;19.48;;;7.50;;
76196;SDS011;64974;53.144;17.962;2022-12-07T09:41:22;17.15;;;7.22;;
76196;SDS011;64974;53.144;17.962;2022-12-07T09:43:48;19.33;;;8.90;;
76196;SDS011;64974;53.144;17.962;2022-12-07T09:46:17;17.17;;;7.80;;
76196;SDS011;64974;53.144;17.962;2022-12-07T09:48:44;21.60;;;7.57;;
76196;SDS011;64974;53.144;17.962;2022-12-07T09:51:18;21.27;;;8.00;;
76196;SDS011;64974;53.144;17.962;2022-12-07T09:53:45;18.63;;;8.57;;
76196;SDS011;64974;53.144;17.962;2022-12-07T09:56:12;21.55;;;8.32;;
76196;SDS011;64974;53.144;17.962;2022-12-07T09:58:38;13.45;;;5.85;;
76196;SDS011;64974;53.144;17.962;2022-12-07T10:03:32;19.42;;;8.70;;
76196;SDS011;64974;53.144;17.962;2022-12-07T10:05:58;22.10;;;8.70;;
76196;SDS011;64974;53.144;17.962;2022-12-07T10:08:24;17.05;;;6.88;;
76196;SDS011;64974;53.144;17.962;2022-12-07T10:10:51;16.95;;;8.00;;
76196;SDS011;64974;53.144;17.962;2022-12-07T10:13:19;21.10;;;8.80;;
76196;SDS011;64974;53.144;17.962;2022-12-07T10:15:53;16.40;;;7.88;;
76196;SDS011;64974;53.144;17.962;2022-12-07T10:20:46;16.93;;;6.40;;
76196;SDS011;64974;53.144;17.962;2022-12-07T10:23:16;18.73;;;8.23;;
76196;SDS011;64974;53.144;17.962;2022-12-07T10:25:42;16.83;;;8.20;;
76196;SDS011;64974;53.144;17.962;2022-12-07T10:28:13;14.68;;;6.15;;
76196;SDS011;64974;53.144;17.962;2022-12-07T10:30:50;17.75;;;7.32;;
76196;SDS011;64974;53.144;17.962;2022-12-07T10:33:29;18.02;;;9.10;;
76196;SDS011;64974;53.144;17.962;2022-12-07T10:35:56;18.35;;;8.30;;
76196;SDS011;64974;53.144;17.962;2022-12-07T10:38:21;18.05;;;8.00;;
76196;SDS011;64974;53.144;17.962;2022-12-07T10:40:47;18.08;;;7.43;;
76196;SDS011;64974;53.144;17.962;2022-12-07T10:50:52;17.67;;;7.75;;
76196;SDS011;64974;53.144;17.962;2022-12-07T10:53:42;17.15;;;7.57;;
76196;SDS011;64974;53.144;17.962;2022-12-07T11:07:22;21.50;;;10.02;;
76196;SDS011;64974;53.144;17.962;2022-12-07T11:10:02;17.73;;;7.93;;
76196;SDS011;64974;53.144;17.962;2022-12-07T11:21:23;14.77;;;7.72;;
76196;SDS011;64974;53.144;17.962;2022-12-07T11:24:00;17.20;;;8.23;;
76196;SDS011;64974;53.144;17.962;2022-12-07T11:26:34;15.48;;;6.75;;
76196;SDS011;64974;53.144;17.962;2022-12-07T11:29:28;18.40;;;7.10;;
76196;SDS011;64974;53.144;17.962;2022-12-07T11:37:50;15.57;;;6.95;;
76196;SDS011;64974;53.144;17.962;2022-12-07T11:40:22;15.02;;;6.35;;
76196;SDS011;64974;53.144;17.962;2022-12-07T11:45:24;14.23;;;6.97;;
76196;SDS011;64974;53.144;17.962;2022-12-07T11:47:56;15.00;;;7.55;;
76196;SDS011;64974;53.144;17.962;2022-12-07T11:50:41;16.08;;;7.07;;
76196;SDS011;64974;53.144;17.962;2022-12-07T11:58:23;14.98;;;6.78;;
76196;SDS011;64974;53.144;17.962;2022-12-07T12:01:02;11.07;;;6.28;;
76196;SDS011;64974;53.144;17.962;2022-12-07T12:03:33;16.67;;;8.25;;
76196;SDS011;64974;53.144;17.962;2022-12-07T12:06:01;15.30;;;7.38;;
76196;SDS011;64974;53.144;17.962;2022-12-07T12:08:28;13.85;;;6.35;;
76196;SDS011;64974;53.144;17.962;2022-12-07T12:16:47;11.93;;;7.03;;
76196;SDS011;64974;53.144;17.962;2022-12-07T12:19:24;13.63;;;6.90;;
76196;SDS011;64974;53.144;17.962;2022-12-07T12:21:56;12.95;;;5.53;;
76196;SDS011;64974;53.144;17.962;2022-12-07T12:24:27;14.57;;;7.25;;
76196;SDS011;64974;53.144;17.962;2022-12-07T12:27:05;15.15;;;6.20;;
76196;SDS011;64974;53.144;17.962;2022-12-07T12:29:33;20.88;;;7.78;;
76196;SDS011;64974;53.144;17.962;2022-12-07T12:32:06;17.52;;;7.75;;
76196;SDS011;64974;53.144;17.962;2022-12-07T12:40:37;18.75;;;8.30;;
76196;SDS011;64974;53.144;17.962;2022-12-07T12:42:57;12.95;;;7.38;;
76196;SDS011;64974;53.144;17.962;2022-12-07T12:45:24;15.25;;;7.28;;
76196;SDS011;64974;53.144;17.962;2022-12-07T12:47:54;14.20;;;6.95;;
76196;SDS011;64974;53.144;17.962;2022-12-07T12:55:21;21.60;;;8.75;;
76196;SDS011;64974;53.144;17.962;2022-12-07T13:00:43;19.90;;;9.55;;
76196;SDS011;64974;53.144;17.962;2022-12-07T13:03:26;17.92;;;6.82;;
76196;SDS011;64974;53.144;17.962;2022-12-07T13:08:42;13.98;;;6.00;;
76196;SDS011;64974;53.144;17.962;2022-12-07T13:11:25;19.40;;;7.60;;
76196;SDS011;64974;53.144;17.962;2022-12-07T13:17:05;17.52;;;7.95;;
76196;SDS011;64974;53.144;17.962;2022-12-07T13:28:09;15.63;;;6.60;;
76196;SDS011;64974;53.144;17.962;2022-12-07T13:30:50;16.13;;;6.30;;
76196;SDS011;64974;53.144;17.962;2022-12-07T13:33:23;13.80;;;6.03;;
76196;SDS011;64974;53.144;17.962;2022-12-07T13:35:56;15.05;;;7.85;;
76196;SDS011;64974;53.144;17.962;2022-12-07T13:43:42;12.52;;;6.43;;
76196;SDS011;64974;53.144;17.962;2022-12-07T13:46:09;20.35;;;8.23;;
76196;SDS011;64974;53.144;17.962;2022-12-07T13:48:43;20.38;;;8.48;;
76196;SDS011;64974;53.144;17.962;2022-12-07T13:51:16;15.68;;;7.50;;
76196;SDS011;64974;53.144;17.962;2022-12-07T13:53:48;20.85;;;8.27;;
76196;SDS011;64974;53.144;17.962;2022-12-07T13:56:14;14.07;;;7.05;;
76196;SDS011;64974;53.144;17.962;2022-12-07T13:58:41;16.88;;;7.15;;
76196;SDS011;64974;53.144;17.962;2022-12-07T14:01:06;17.88;;;6.55;;
76196;SDS011;64974;53.144;17.962;2022-12-07T14:03:32;16.02;;;6.63;;
76196;SDS011;64974;53.144;17.962;2022-12-07T14:08:43;21.10;;;9.38;;
76196;SDS011;64974;53.144;17.962;2022-12-07T14:11:18;30.23;;;15.32;;
76196;SDS011;64974;53.144;17.962;2022-12-07T14:13:50;37.88;;;20.63;;
76196;SDS011;64974;53.144;17.962;2022-12-07T14:16:34;65.00;;;32.42;;
76196;SDS011;64974;53.144;17.962;2022-12-07T14:19:02;34.08;;;17.58;;
76196;SDS011;64974;53.144;17.962;2022-12-07T14:21:30;15.68;;;7.65;;
76196;SDS011;64974;53.144;17.962;2022-12-07T14:26:35;25.95;;;9.65;;
76196;SDS011;64974;53.144;17.962;2022-12-07T14:31:44;20.48;;;8.50;;
76196;SDS011;64974;53.144;17.962;2022-12-07T14:34:13;23.63;;;10.17;;
76196;SDS011;64974;53.144;17.962;2022-12-07T14:36:38;13.60;;;7.32;;
76196;SDS011;64974;53.144;17.962;2022-12-07T14:39:03;13.75;;;6.82;;
76196;SDS011;64974;53.144;17.962;2022-12-07T14:41:29;12.45;;;6.63;;
76196;SDS011;64974;53.144;17.962;2022-12-07T14:44:13;14.38;;;7.20;;
76196;SDS011;64974;53.144;17.962;2022-12-07T14:46:38;14.43;;;7.20;;
76196;SDS011;64974;53.144;17.962;2022-12-07T14:49:03;15.77;;;8.40;;
76196;SDS011;64974;53.144;17.962;2022-12-07T14:51:29;27.53;;;11.00;;
76196;SDS011;64974;53.144;17.962;2022-12-07T14:53:54;24.55;;;11.82;;
76196;SDS011;64974;53.144;17.962;2022-12-07T14:56:20;36.20;;;21.55;;
76196;SDS011;64974;53.144;17.962;2022-12-07T14:58:45;34.15;;;17.77;;
76196;SDS011;64974;53.144;17.962;2022-12-07T15:01:13;71.20;;;35.10;;
76196;SDS011;64974;53.144;17.962;2022-12-07T15:03:38;43.80;;;20.83;;
76196;SDS011;64974;53.144;17.962;2022-12-07T15:06:04;36.53;;;15.30;;
76196;SDS011;64974;53.144;17.962;2022-12-07T15:08:30;27.67;;;11.50;;
76196;SDS011;64974;53.144;17.962;2022-12-07T15:10:55;25.07;;;11.43;;
76196;SDS011;64974;53.144;17.962;2022-12-07T15:13:21;27.50;;;12.68;;
76196;SDS011;64974;53.144;17.962;2022-12-07T15:16:04;23.00;;;10.63;;
76196;SDS011;64974;53.144;17.962;2022-12-07T15:18:30;30.95;;;12.80;;
76196;SDS011;64974;53.144;17.962;2022-12-07T15:20:55;24.25;;;10.35;;
76196;SDS011;64974;53.144;17.962;2022-12-07T15:23:21;31.10;;;12.75;;
76196;SDS011;64974;53.144;17.962;2022-12-07T15:25:47;41.95;;;14.43;;
76196;SDS011;64974;53.144;17.962;2022-12-07T15:28:13;35.55;;;15.18;;
76196;SDS011;64974;53.144;17.962;2022-12-07T15:30:39;28.33;;;13.35;;
76196;SDS011;64974;53.144;17.962;2022-12-07T15:33:07;27.00;;;12.32;;
76196;SDS011;64974;53.144;17.962;2022-12-07T15:35:33;32.22;;;12.70;;
76196;SDS011;64974;53.144;17.962;2022-12-07T15:37:58;26.65;;;11.20;;
76196;SDS011;64974;53.144;17.962;2022-12-07T15:40:23;23.90;;;9.40;;
76196;SDS011;64974;53.144;17.962;2022-12-07T15:42:49;17.77;;;7.53;;
76196;SDS011;64974;53.144;17.962;2022-12-07T15:45:14;17.35;;;8.10;;
76196;SDS011;64974;53.144;17.962;2022-12-07T15:47:40;25.83;;;11.50;;
76196;SDS011;64974;53.144;17.962;2022-12-07T15:50:08;26.63;;;11.75;;
76196;SDS011;64974;53.144;17.962;2022-12-07T15:52:41;29.20;;;12.68;;
76196;SDS011;64974;53.144;17.962;2022-12-07T15:55:07;33.58;;;12.95;;
76196;SDS011;64974;53.144;17.962;2022-12-07T15:57:33;26.13;;;10.60;;
76196;SDS011;64974;53.144;17.962;2022-12-07T16:00:02;23.23;;;10.77;;
76196;SDS011;64974;53.144;17.962;2022-12-07T16:02:31;21.13;;;8.70;;
76196;SDS011;64974;53.144;17.962;2022-12-07T16:04:57;19.80;;;9.05;;
76196;SDS011;64974;53.144;17.962;2022-12-07T16:07:25;22.27;;;9.38;;
76196;SDS011;64974;53.144;17.962;2022-12-07T16:09:54;20.70;;;9.43;;
76196;SDS011;64974;53.144;17.962;2022-12-07T16:12:19;33.63;;;13.57;;
76196;SDS011;64974;53.144;17.962;2022-12-07T16:14:44;30.42;;;11.88;;
76196;SDS011;64974;53.144;17.962;2022-12-07T16:17:10;25.05;;;11.95;;
76196;SDS011;64974;53.144;17.962;2022-12-07T16:19:36;25.52;;;11.70;;
76196;SDS011;64974;53.144;17.962;2022-12-07T16:22:02;21.42;;;8.27;;
76196;SDS011;64974;53.144;17.962;2022-12-07T16:24:30;27.63;;;12.52;;
76196;SDS011;64974;53.144;17.962;2022-12-07T16:26:58;29.60;;;10.38;;
76196;SDS011;64974;53.144;17.962;2022-12-07T16:29:24;22.27;;;9.07;;
76196;SDS011;64974;53.144;17.962;2022-12-07T16:31:50;22.70;;;9.63;;
76196;SDS011;64974;53.144;17.962;2022-12-07T16:34:16;20.17;;;8.88;;
76196;SDS011;64974;53.144;17.962;2022-12-07T16:36:42;29.17;;;11.48;;
76196;SDS011;64974;53.144;17.962;2022-12-07T16:39:08;28.48;;;11.10;;
76196;SDS011;64974;53.144;17.962;2022-12-07T16:41:34;16.23;;;7.03;;
76196;SDS011;64974;53.144;17.962;2022-12-07T16:44:02;25.65;;;10.63;;
76196;SDS011;64974;53.144;17.962;2022-12-07T16:46:28;19.50;;;8.90;;
76196;SDS011;64974;53.144;17.962;2022-12-07T16:48:56;18.75;;;7.70;;
76196;SDS011;64974;53.144;17.962;2022-12-07T16:51:24;21.73;;;10.18;;
76196;SDS011;64974;53.144;17.962;2022-12-07T16:53:52;22.00;;;8.23;;
76196;SDS011;64974;53.144;17.962;2022-12-07T16:56:18;25.65;;;10.60;;
76196;SDS011;64974;53.144;17.962;2022-12-07T16:58:45;19.95;;;9.55;;
76196;SDS011;64974;53.144;17.962;2022-12-07T17:01:17;21.83;;;10.18;;
76196;SDS011;64974;53.144;17.962;2022-12-07T17:03:44;24.27;;;11.45;;
76196;SDS011;64974;53.144;17.962;2022-12-07T17:06:18;27.23;;;11.45;;
76196;SDS011;64974;53.144;17.962;2022-12-07T17:08:47;32.58;;;14.73;;
76196;SDS011;64974;53.144;17.962;2022-12-07T17:11:33;21.20;;;10.00;;
76196;SDS011;64974;53.144;17.962;2022-12-07T17:13:58;27.20;;;10.50;;
76196;SDS011;64974;53.144;17.962;2022-12-07T17:16:42;23.75;;;9.82;;
76196;SDS011;64974;53.144;17.962;2022-12-07T17:19:09;25.83;;;11.60;;
76196;SDS011;64974;53.144;17.962;2022-12-07T17:21:36;24.77;;;12.35;;
76196;SDS011;64974;53.144;17.962;2022-12-07T17:24:02;16.02;;;6.50;;
76196;SDS011;64974;53.144;17.962;2022-12-07T17:26:29;21.65;;;8.70;;
76196;SDS011;64974;53.144;17.962;2022-12-07T17:28:55;19.23;;;9.18;;
76196;SDS011;64974;53.144;17.962;2022-12-07T17:31:22;18.80;;;8.90;;
76196;SDS011;64974;53.144;17.962;2022-12-07T17:33:48;18.10;;;9.00;;
76196;SDS011;64974;53.144;17.962;2022-12-07T17:36:18;16.52;;;7.20;;
76196;SDS011;64974;53.144;17.962;2022-12-07T17:38:47;15.00;;;7.93;;
76196;SDS011;64974;53.144;17.962;2022-12-07T17:41:16;17.45;;;7.45;;
76196;SDS011;64974;53.144;17.962;2022-12-07T17:44:12;16.15;;;7.85;;
76196;SDS011;64974;53.144;17.962;2022-12-07T17:46:39;13.00;;;6.43;;
76196;SDS011;64974;53.144;17.962;2022-12-07T17:49:05;10.13;;;5.00;;
76196;SDS011;64974;53.144;17.962;2022-12-07T17:51:30;11.15;;;5.20;;
76196;SDS011;64974;53.144;17.962;2022-12-07T17:54:14;12.23;;;6.13;;
76196;SDS011;64974;53.144;17.962;2022-12-07T17:56:40;18.02;;;8.43;;
76196;SDS011;64974;53.144;17.962;2022-12-07T17:59:05;15.05;;;7.43;;
76196;SDS011;64974;53.144;17.962;2022-12-07T18:01:31;9.10;;;4.90;;